createdAt,value
2018-11-01T00:00:18.708Z,59.50
2018-11-01T00:02:47.637Z,59.72
2018-11-01T00:05:16.647Z,59.56
2018-11-01T00:07:45.674Z,59.96
2018-11-01T00:10:14.557Z,60.15
2018-11-01T00:12:44.243Z,60.41
2018-11-01T00:15:14.187Z,60.26
2018-11-01T00:17:42.871Z,60.45
2018-11-01T00:20:12.871Z,60.63
2018-11-01T00:22:42.294Z,60.46
2018-11-01T00:25:12.198Z,60.50
2018-11-01T00:27:41.478Z,60.71
2018-11-01T00:30:11.046Z,60.62
2018-11-01T00:32:39.824Z,60.45
2018-11-01T00:35:09.120Z,60.64
2018-11-01T00:37:37.939Z,60.71
2018-11-01T00:40:09.254Z,60.69
2018-11-01T00:42:37.962Z,60.52
2018-11-01T00:45:07.295Z,60.37
2018-11-01T00:47:36.102Z,60.45
2018-11-01T00:50:05.114Z,60.61
2018-11-01T00:52:33.881Z,60.38
2018-11-01T00:55:02.563Z,60.83
2018-11-01T00:57:31.355Z,60.98
2018-11-01T01:00:00.191Z,60.98
2018-11-01T01:02:28.922Z,60.78
2018-11-01T01:04:57.602Z,60.67
2018-11-01T01:07:26.365Z,60.79
2018-11-01T01:09:55.088Z,61.09
2018-11-01T01:12:23.790Z,60.48
2018-11-01T01:14:52.640Z,60.59
2018-11-01T01:17:21.338Z,60.55
2018-11-01T01:19:50.022Z,61.04
2018-11-01T01:22:18.758Z,60.82
2018-11-01T01:24:47.438Z,61.44
2018-11-01T01:27:16.130Z,61.22
2018-11-01T01:29:44.845Z,60.92
2018-11-01T01:32:13.561Z,61.04
2018-11-01T01:34:42.366Z,60.87
2018-11-01T01:37:11.095Z,61.02
2018-11-01T01:39:39.812Z,61.12
2018-11-01T01:42:08.562Z,60.86
2018-11-01T01:44:37.280Z,60.75
2018-11-01T01:47:06.442Z,60.81
2018-11-01T01:49:35.118Z,61.07
2018-11-01T01:52:03.944Z,61.18
2018-11-01T01:54:32.679Z,61.11
2018-11-01T01:57:01.457Z,61.10
2018-11-01T01:59:30.555Z,61.18
2018-11-01T02:01:59.255Z,60.68
2018-11-01T02:04:27.893Z,60.75
2018-11-01T02:06:56.674Z,60.77
2018-11-01T02:09:25.359Z,60.89
2018-11-01T02:11:54.157Z,60.90
2018-11-01T02:14:23.059Z,60.60
2018-11-01T02:16:51.735Z,60.66
2018-11-01T02:19:20.423Z,60.67
2018-11-01T02:21:49.157Z,60.55
2018-11-01T02:24:17.846Z,60.59
2018-11-01T02:26:46.783Z,60.99
2018-11-01T02:29:15.906Z,60.90
2018-11-01T02:31:44.593Z,60.89
2018-11-01T02:34:13.291Z,60.81
2018-11-01T02:36:42.026Z,60.92
2018-11-01T02:39:12.091Z,60.76
2018-11-01T02:41:41.102Z,61.15
2018-11-01T02:44:10.326Z,60.79
2018-11-01T02:46:39.021Z,60.77
2018-11-01T02:49:08.489Z,61.27
2018-11-01T02:51:38.338Z,61.10
2018-11-01T02:54:07.414Z,61.22
2018-11-01T02:56:36.093Z,61.40
2018-11-01T02:59:04.846Z,61.36
2018-11-01T03:01:33.549Z,61.29
2018-11-01T03:04:02.245Z,60.99
2018-11-01T03:06:31.691Z,61.06
2018-11-01T03:09:00.367Z,60.69
2018-11-01T03:11:29.123Z,60.41
2018-11-01T03:13:57.878Z,60.80
2018-11-01T03:16:26.586Z,60.58
2018-11-01T03:18:55.315Z,60.94
2018-11-01T03:21:24.063Z,60.90
2018-11-01T03:23:52.790Z,60.58
2018-11-01T03:26:21.507Z,60.97
2018-11-01T03:28:50.348Z,60.73
2018-11-01T03:31:19.009Z,60.85
2018-11-01T03:33:47.726Z,60.74
2018-11-01T03:36:16.536Z,60.57
2018-11-01T03:38:45.289Z,60.72
2018-11-01T03:41:13.972Z,60.72
2018-11-01T03:43:42.869Z,60.18
2018-11-01T03:46:11.734Z,60.27
2018-11-01T03:48:40.424Z,60.46
2018-11-01T03:51:09.159Z,60.62
2018-11-01T03:53:38.017Z,60.62
2018-11-01T03:56:06.664Z,60.38
2018-11-01T03:58:35.623Z,60.56
2018-11-01T04:01:04.335Z,60.77
2018-11-01T04:03:33.035Z,60.67
2018-11-01T04:06:01.812Z,61.08
2018-11-01T04:08:30.527Z,61.03
2018-11-01T04:10:59.237Z,60.95
2018-11-01T04:13:28.076Z,61.19
2018-11-01T04:15:56.847Z,61.21
2018-11-01T04:18:25.519Z,61.07
2018-11-01T04:20:54.334Z,61.75
2018-11-01T04:23:23.207Z,61.68
2018-11-01T04:25:54.729Z,61.94
2018-11-01T04:28:23.537Z,62.10
2018-11-01T04:30:52.271Z,62.24
2018-11-01T04:33:21.058Z,62.46
2018-11-01T04:35:49.802Z,62.38
2018-11-01T04:38:18.537Z,62.71
2018-11-01T04:40:47.324Z,62.86
2018-11-01T04:43:16.265Z,62.61
2018-11-01T04:45:45.003Z,62.77
2018-11-01T04:48:13.854Z,62.88
2018-11-01T04:50:42.687Z,62.95
2018-11-01T04:53:11.353Z,63.12
2018-11-01T04:55:40.032Z,63.12
2018-11-01T04:58:08.856Z,63.01
2018-11-01T05:00:37.859Z,63.17
2018-11-01T05:03:06.799Z,63.08
2018-11-01T05:05:35.564Z,63.56
2018-11-01T05:08:04.294Z,64.08
2018-11-01T05:10:33.012Z,63.78
2018-11-01T05:13:02.017Z,63.65
2018-11-01T05:15:30.692Z,63.79
2018-11-01T05:17:59.348Z,64.00
2018-11-01T05:20:28.051Z,63.82
2018-11-01T05:22:56.819Z,64.05
2018-11-01T05:25:32.536Z,64.30
2018-11-01T05:28:01.905Z,63.72
2018-11-01T05:30:30.639Z,63.95
2018-11-01T05:32:59.634Z,63.75
2018-11-01T05:35:28.331Z,64.05
2018-11-01T05:37:57.024Z,64.09
2018-11-01T05:40:25.746Z,64.02
2018-11-01T05:42:54.467Z,63.97
2018-11-01T05:45:23.152Z,63.77
2018-11-01T05:47:51.926Z,63.79
2018-11-01T05:50:20.794Z,63.56
2018-11-01T05:52:49.486Z,63.50
2018-11-01T05:55:18.596Z,63.42
2018-11-01T05:57:47.297Z,63.33
2018-11-01T06:00:16.038Z,63.32
2018-11-01T06:02:47.093Z,63.58
2018-11-01T06:05:15.772Z,63.78
2018-11-01T06:07:53.506Z,63.71
2018-11-01T06:10:22.195Z,63.94
2018-11-01T06:12:50.971Z,63.97
2018-11-01T06:15:19.819Z,63.82
2018-11-01T06:17:48.539Z,63.65
2018-11-01T06:20:17.325Z,64.00
2018-11-01T06:22:46.178Z,63.82
2018-11-01T06:25:15.093Z,63.82
2018-11-01T06:27:43.841Z,64.07
2018-11-01T06:30:15.479Z,64.07
2018-11-01T06:32:45.180Z,64.13
2018-11-01T06:35:21.997Z,64.32
2018-11-01T06:37:50.827Z,64.07
2018-11-01T06:40:19.592Z,64.01
2018-11-01T06:42:49.170Z,64.02
2018-11-01T06:45:18.330Z,63.87
2018-11-01T06:47:47.049Z,64.28
2018-11-01T06:50:15.778Z,63.98
2018-11-01T06:52:44.703Z,63.94
2018-11-01T06:55:13.424Z,64.24
2018-11-01T06:57:42.354Z,64.14
2018-11-01T07:00:14.085Z,64.20
2018-11-01T07:02:42.916Z,64.19
2018-11-01T07:05:12.373Z,64.12
2018-11-01T07:07:41.116Z,64.03
2018-11-01T07:10:12.337Z,63.74
2018-11-01T07:12:41.070Z,64.09
2018-11-01T07:15:11.303Z,63.70
2018-11-01T07:17:40.612Z,63.77
2018-11-01T07:20:10.311Z,63.65
2018-11-01T07:22:39.979Z,63.71
2018-11-01T07:25:10.868Z,63.13
2018-11-01T07:27:39.513Z,63.08
2018-11-01T07:30:13.578Z,63.06
2018-11-01T07:32:42.432Z,62.75
2018-11-01T07:35:11.920Z,63.08
2018-11-01T07:37:41.963Z,63.35
2018-11-01T07:40:12.903Z,62.75
2018-11-01T07:42:41.632Z,62.87
2018-11-01T07:45:11.405Z,63.00
2018-11-01T07:47:41.332Z,62.99
2018-11-01T07:50:11.090Z,63.01
2018-11-01T07:52:40.449Z,62.82
2018-11-01T07:55:11.317Z,62.68
2018-11-01T07:57:39.972Z,63.04
2018-11-01T08:00:12.426Z,63.01
2018-11-01T08:02:41.352Z,63.22
2018-11-01T08:05:11.027Z,63.42
2018-11-01T08:07:40.070Z,63.26
2018-11-01T08:10:12.005Z,63.33
2018-11-01T08:12:41.152Z,62.90
2018-11-01T08:15:12.550Z,63.01
2018-11-01T08:17:41.464Z,62.83
2018-11-01T08:20:12.199Z,62.61
2018-11-01T08:22:40.817Z,62.93
2018-11-01T08:25:10.160Z,63.05
2018-11-01T08:27:39.352Z,63.02
2018-11-01T08:30:09.758Z,62.70
2018-11-01T08:32:38.766Z,62.52
2018-11-01T08:35:08.076Z,62.32
2018-11-01T08:37:38.014Z,62.14
2018-11-01T08:40:07.745Z,61.70
2018-11-01T08:42:36.594Z,61.93
2018-11-01T08:45:05.938Z,61.56
2018-11-01T08:47:34.602Z,61.70
2018-11-01T08:50:03.370Z,61.84
2018-11-01T08:52:32.316Z,61.64
2018-11-01T08:55:01.028Z,61.94
2018-11-01T08:57:30.168Z,61.87
2018-11-01T08:59:58.928Z,61.57
2018-11-01T09:02:27.706Z,61.78
2018-11-01T09:04:56.519Z,61.94
2018-11-01T09:07:31.567Z,61.76
2018-11-01T09:10:00.377Z,61.36
2018-11-01T09:12:29.109Z,60.96
2018-11-01T09:14:57.844Z,61.08
2018-11-01T09:17:26.665Z,61.11
2018-11-01T09:19:55.402Z,60.68
2018-11-01T09:22:24.056Z,60.88
2018-11-01T09:24:52.886Z,60.93
2018-11-01T09:27:21.722Z,61.04
2018-11-01T09:29:50.450Z,61.48
2018-11-01T09:32:19.258Z,61.27
2018-11-01T09:34:48.053Z,60.90
2018-11-01T09:37:16.752Z,60.81
2018-11-01T09:39:45.533Z,60.93
2018-11-01T09:42:14.206Z,60.72
2018-11-01T09:44:42.959Z,60.62
2018-11-01T09:47:12.095Z,60.49
2018-11-01T09:49:40.683Z,60.88
2018-11-01T09:52:09.892Z,61.23
2018-11-01T09:54:38.723Z,61.30
2018-11-01T09:57:07.728Z,60.56
2018-11-01T09:59:36.483Z,60.31
2018-11-01T10:02:05.359Z,60.61
2018-11-01T10:04:34.128Z,60.15
2018-11-01T10:07:02.862Z,60.05
2018-11-01T10:09:32.902Z,60.05
2018-11-01T10:12:02.535Z,59.73
2018-11-01T10:14:31.281Z,59.69
2018-11-01T10:17:00.433Z,59.37
2018-11-01T10:19:28.809Z,59.34
2018-11-01T10:21:57.874Z,58.74
2018-11-01T10:24:26.671Z,58.17
2018-11-01T10:26:55.379Z,58.28
2018-11-01T10:29:24.084Z,58.27
2018-11-01T10:31:52.786Z,57.75
2018-11-01T10:34:21.445Z,57.67
2018-11-01T10:36:50.146Z,57.37
2018-11-01T10:39:18.917Z,57.26
2018-11-01T10:41:47.584Z,56.53
2018-11-01T10:44:16.286Z,57.27
2018-11-01T10:46:45.055Z,56.78
2018-11-01T10:49:13.794Z,56.93
2018-11-01T10:51:42.531Z,57.34
2018-11-01T10:54:11.421Z,57.04
2018-11-01T10:56:40.125Z,56.76
2018-11-01T10:59:08.849Z,57.46
2018-11-01T11:01:42.932Z,56.89
2018-11-01T11:04:12.135Z,57.23
2018-11-01T11:06:41.821Z,56.66
2018-11-01T11:09:10.738Z,56.73
2018-11-01T11:11:39.444Z,56.80
2018-11-01T11:14:08.160Z,56.76
2018-11-01T11:16:36.879Z,56.44
2018-11-01T11:19:05.870Z,56.12
2018-11-01T11:21:34.533Z,55.79
2018-11-01T11:24:03.446Z,56.00
2018-11-01T11:26:32.663Z,55.92
2018-11-01T11:29:01.423Z,56.26
2018-11-01T11:31:30.237Z,56.21
2018-11-01T11:33:58.903Z,56.26
2018-11-01T11:36:27.658Z,56.39
2018-11-01T11:38:56.815Z,56.44
2018-11-01T11:41:25.543Z,56.27
2018-11-01T11:43:54.213Z,56.43
2018-11-01T11:46:23.041Z,56.02
2018-11-01T11:48:51.751Z,55.91
2018-11-01T11:51:20.494Z,55.74
2018-11-01T11:53:49.280Z,55.67
2018-11-01T11:56:18.006Z,56.13
2018-11-01T11:58:46.726Z,55.68
2018-11-01T12:01:15.572Z,55.63
2018-11-01T12:03:44.395Z,55.62
2018-11-01T12:06:13.199Z,55.89
2018-11-01T12:08:42.039Z,55.69
2018-11-01T12:11:10.723Z,55.75
2018-11-01T12:13:39.413Z,55.55
2018-11-01T12:16:08.231Z,56.04
2018-11-01T12:18:37.214Z,55.44
2018-11-01T12:21:06.016Z,55.68
2018-11-01T12:23:34.875Z,55.60
2018-11-01T12:26:03.612Z,55.64
2018-11-01T12:28:32.884Z,55.49
2018-11-01T12:31:01.702Z,56.34
2018-11-01T12:33:30.378Z,55.90
2018-11-01T12:35:59.099Z,55.75
2018-11-01T12:38:27.802Z,56.06
2018-11-01T12:40:56.478Z,56.20
2018-11-01T12:43:25.270Z,56.46
2018-11-01T12:45:54.098Z,56.53
2018-11-01T12:48:22.770Z,56.88
2018-11-01T12:50:51.506Z,57.05
2018-11-01T12:53:20.238Z,56.97
2018-11-01T12:55:48.938Z,56.51
2018-11-01T12:58:17.623Z,57.07
2018-11-01T13:00:46.364Z,56.71
2018-11-01T13:03:15.051Z,56.74
2018-11-01T13:05:46.791Z,56.72
2018-11-01T13:08:15.658Z,56.09
2018-11-01T13:10:44.422Z,57.21
2018-11-01T13:13:13.085Z,56.58
2018-11-01T13:15:41.938Z,57.21
2018-11-01T13:18:10.694Z,57.57
2018-11-01T13:20:39.341Z,57.38
2018-11-01T13:23:08.106Z,57.77
2018-11-01T13:25:36.794Z,57.21
2018-11-01T13:28:05.591Z,57.59
2018-11-01T13:30:34.642Z,57.53
2018-11-01T13:33:03.367Z,57.95
2018-11-01T13:35:32.948Z,58.19
2018-11-01T13:38:01.718Z,58.14
2018-11-01T13:40:30.734Z,58.06
2018-11-01T13:42:59.198Z,57.90
2018-11-01T13:45:27.946Z,58.28
2018-11-01T13:47:56.690Z,58.37
2018-11-01T13:50:25.345Z,58.23
2018-11-01T13:52:54.098Z,58.11
2018-11-01T13:55:22.815Z,58.83
2018-11-01T13:57:51.632Z,58.78
2018-11-01T14:00:20.381Z,58.65
2018-11-01T14:02:49.194Z,58.91
2018-11-01T14:05:17.994Z,58.57
2018-11-01T14:07:46.974Z,58.65
2018-11-01T14:10:16.422Z,59.38
2018-11-01T14:12:45.192Z,59.41
2018-11-01T14:15:14.421Z,59.34
2018-11-01T14:17:42.758Z,59.54
2018-11-01T14:20:12.613Z,59.79
2018-11-01T14:22:41.499Z,59.86
2018-11-01T14:25:11.278Z,60.43
2018-11-01T14:27:40.000Z,60.26
2018-11-01T14:30:11.904Z,60.48
2018-11-01T14:32:41.184Z,60.73
2018-11-01T14:35:10.530Z,60.77
2018-11-01T14:37:39.372Z,60.91
2018-11-01T14:40:10.322Z,60.66
2018-11-01T14:42:39.149Z,60.76
2018-11-01T14:45:08.340Z,61.57
2018-11-01T14:47:37.056Z,61.57
2018-11-01T14:50:07.010Z,61.63
2018-11-01T14:52:36.081Z,61.91
2018-11-01T14:55:06.189Z,61.87
2018-11-01T14:57:34.833Z,62.04
2018-11-01T15:00:03.104Z,62.37
2018-11-01T15:02:31.883Z,62.22
2018-11-01T15:05:00.589Z,61.73
2018-11-01T15:07:29.354Z,62.39
2018-11-01T15:09:58.288Z,62.06
2018-11-01T15:12:27.004Z,61.95
2018-11-01T15:14:55.795Z,62.22
2018-11-01T15:17:24.461Z,61.95
2018-11-01T15:19:53.139Z,62.26
2018-11-01T15:22:21.866Z,62.37
2018-11-01T15:24:50.590Z,62.52
2018-11-01T15:27:19.280Z,62.77
2018-11-01T15:29:48.299Z,62.83
2018-11-01T15:32:22.201Z,62.78
2018-11-01T15:34:51.014Z,63.36
2018-11-01T15:37:19.827Z,63.48
2018-11-01T15:39:48.986Z,63.44
2018-11-01T15:42:18.013Z,63.52
2018-11-01T15:44:47.247Z,64.08
2018-11-01T15:47:15.956Z,64.45
2018-11-01T15:49:45.080Z,64.28
2018-11-01T15:52:13.764Z,64.15
2018-11-01T15:54:43.410Z,63.93
2018-11-01T15:57:12.133Z,64.11
2018-11-01T15:59:40.925Z,64.25
2018-11-01T16:02:09.578Z,64.01
2018-11-01T16:04:38.391Z,64.38
2018-11-01T16:07:07.338Z,63.89
2018-11-01T16:09:36.031Z,64.34
2018-11-01T16:12:05.007Z,64.49
2018-11-01T16:14:33.707Z,64.28
2018-11-01T16:17:03.237Z,64.62
2018-11-01T16:19:32.115Z,64.75
2018-11-01T16:22:00.742Z,64.98
2018-11-01T16:24:29.405Z,65.26
2018-11-01T16:26:58.334Z,65.02
2018-11-01T16:29:27.084Z,64.84
2018-11-01T16:31:55.794Z,64.88
2018-11-01T16:34:24.653Z,64.86
2018-11-01T16:36:53.523Z,65.24
2018-11-01T16:39:22.186Z,65.53
2018-11-01T16:41:50.959Z,65.50
2018-11-01T16:44:19.726Z,65.67
2018-11-01T16:46:49.615Z,65.78
2018-11-01T16:49:18.327Z,65.39
2018-11-01T16:51:47.064Z,65.54
2018-11-01T16:54:15.735Z,65.50
2018-11-01T16:56:44.562Z,65.64
2018-11-01T16:59:13.308Z,65.97
2018-11-01T17:01:42.090Z,65.97
2018-11-01T17:04:10.930Z,66.20
2018-11-01T17:06:39.606Z,66.20
2018-11-01T17:09:09.842Z,66.48
2018-11-01T17:11:38.786Z,66.52
2018-11-01T17:14:07.785Z,66.85
2018-11-01T17:16:37.024Z,66.68
2018-11-01T17:19:06.565Z,66.95
2018-11-01T17:21:35.229Z,66.74
2018-11-01T17:24:04.134Z,66.45
2018-11-01T17:26:33.437Z,66.50
2018-11-01T17:29:02.140Z,66.75
2018-11-01T17:31:30.879Z,67.25
2018-11-01T17:33:59.819Z,67.19
2018-11-01T17:36:28.561Z,67.38
2018-11-01T17:38:57.247Z,67.48
2018-11-01T17:41:26.000Z,67.56
2018-11-01T17:43:54.805Z,67.43
2018-11-01T17:46:23.565Z,67.53
2018-11-01T17:48:52.310Z,67.53
2018-11-01T17:51:21.066Z,67.50
2018-11-01T17:53:49.768Z,67.46
2018-11-01T17:56:18.598Z,67.28
2018-11-01T17:58:47.303Z,67.65
2018-11-01T18:01:16.003Z,67.83
2018-11-01T18:03:44.739Z,67.73
2018-11-01T18:06:13.533Z,67.75
2018-11-01T18:08:42.312Z,67.97
2018-11-01T18:11:11.281Z,67.55
2018-11-01T18:13:39.991Z,67.94
2018-11-01T18:16:08.963Z,67.23
2018-11-01T18:18:37.787Z,67.50
2018-11-01T18:21:06.739Z,67.19
2018-11-01T18:23:35.450Z,67.46
2018-11-01T18:26:04.251Z,67.81
2018-11-01T18:28:33.411Z,68.21
2018-11-01T18:31:02.102Z,67.84
2018-11-01T18:33:30.972Z,67.81
2018-11-01T18:35:59.678Z,67.99
2018-11-01T18:38:28.457Z,67.87
2018-11-01T18:40:57.373Z,67.80
2018-11-01T18:43:26.415Z,67.71
2018-11-01T18:45:55.298Z,67.78
2018-11-01T18:48:24.231Z,67.60
2018-11-01T18:50:53.136Z,67.72
2018-11-01T18:53:21.865Z,68.05
2018-11-01T18:55:50.712Z,67.80
2018-11-01T18:58:19.466Z,67.51
2018-11-01T19:00:48.717Z,68.44
2018-11-01T19:03:21.558Z,68.16
2018-11-01T19:05:50.448Z,68.18
2018-11-01T19:08:19.236Z,68.30
2018-11-01T19:10:48.341Z,68.61
2018-11-01T19:13:17.197Z,69.02
2018-11-01T19:15:45.976Z,69.07
2018-11-01T19:18:14.899Z,68.95
2018-11-01T19:20:43.598Z,69.16
2018-11-01T19:23:12.306Z,69.01
2018-11-01T19:25:41.164Z,69.25
2018-11-01T19:28:09.915Z,68.93
2018-11-01T19:30:38.635Z,68.94
2018-11-01T19:33:07.836Z,69.13
2018-11-01T19:35:36.550Z,69.45
2018-11-01T19:38:05.290Z,69.48
2018-11-01T19:40:34.134Z,69.20
2018-11-01T19:43:03.614Z,69.24
2018-11-01T19:45:32.334Z,69.50
2018-11-01T19:48:01.349Z,68.96
2018-11-01T19:50:30.070Z,69.10
2018-11-01T19:52:58.770Z,68.83
2018-11-01T19:55:27.530Z,69.50
2018-11-01T19:57:56.269Z,69.07
2018-11-01T20:00:24.942Z,69.21
2018-11-01T20:02:53.855Z,69.29
2018-11-01T20:05:22.483Z,69.03
2018-11-01T20:07:51.269Z,68.93
2018-11-01T20:10:20.228Z,69.23
2018-11-01T20:12:48.920Z,69.21
2018-11-01T20:15:17.639Z,69.13
2018-11-01T20:17:46.558Z,69.10
2018-11-01T20:20:15.655Z,69.01
2018-11-01T20:22:45.552Z,69.31
2018-11-01T20:25:14.429Z,69.46
2018-11-01T20:27:43.277Z,69.56
2018-11-01T20:30:13.907Z,69.84
2018-11-01T20:32:43.396Z,70.08
2018-11-01T20:35:13.297Z,70.18
2018-11-01T20:37:42.527Z,70.42
2018-11-01T20:40:11.455Z,70.61
2018-11-01T20:42:40.707Z,70.94
2018-11-01T20:45:10.821Z,70.87
2018-11-01T20:47:39.786Z,71.05
2018-11-01T20:50:09.791Z,71.45
2018-11-01T20:52:38.478Z,71.97
2018-11-01T20:55:07.459Z,71.80
2018-11-01T20:57:36.232Z,71.38
2018-11-01T21:00:05.830Z,71.60
2018-11-01T21:02:34.835Z,71.64
2018-11-01T21:05:03.824Z,71.72
2018-11-01T21:07:32.516Z,72.18
2018-11-01T21:10:01.270Z,72.21
2018-11-01T21:12:29.988Z,71.97
2018-11-01T21:14:58.688Z,72.13
2018-11-01T21:17:27.556Z,72.34
2018-11-01T21:19:56.391Z,72.11
2018-11-01T21:22:25.255Z,71.88
2018-11-01T21:24:54.303Z,72.64
2018-11-01T21:27:23.032Z,72.64
2018-11-01T21:29:51.739Z,72.86
2018-11-01T21:32:20.586Z,72.92
2018-11-01T21:34:49.314Z,73.25
2018-11-01T21:37:18.010Z,73.31
2018-11-01T21:39:46.921Z,73.78
2018-11-01T21:42:15.638Z,73.73
2018-11-01T21:44:44.593Z,73.54
2018-11-01T21:47:14.323Z,73.63
2018-11-01T21:49:43.024Z,73.61
2018-11-01T21:52:11.762Z,73.84
2018-11-01T21:54:40.619Z,74.34
2018-11-01T21:57:09.306Z,74.38
2018-11-01T21:59:38.016Z,75.04
2018-11-01T22:02:06.884Z,75.18
2018-11-01T22:04:35.620Z,75.18
2018-11-01T22:07:04.420Z,75.71
2018-11-01T22:09:33.907Z,75.69
2018-11-01T22:12:02.690Z,75.93
2018-11-01T22:14:31.400Z,75.73
2018-11-01T22:17:00.195Z,76.02
2018-11-01T22:19:28.976Z,76.30
2018-11-01T22:21:57.810Z,76.70
2018-11-01T22:24:26.706Z,76.99
2018-11-01T22:26:55.447Z,76.56
2018-11-01T22:29:24.170Z,76.87
2018-11-01T22:31:53.257Z,76.82
2018-11-01T22:34:22.094Z,76.81
2018-11-01T22:36:50.845Z,76.79
2018-11-01T22:39:19.665Z,76.55
2018-11-01T22:41:48.374Z,76.36
2018-11-01T22:44:17.048Z,76.58
2018-11-01T22:46:45.872Z,76.67
2018-11-01T22:49:14.570Z,76.63
2018-11-01T22:51:43.280Z,76.91
2018-11-01T22:54:12.092Z,77.14
2018-11-01T22:56:40.787Z,77.49
2018-11-01T22:59:09.565Z,76.85
2018-11-01T23:01:38.947Z,76.58
2018-11-01T23:04:07.855Z,76.91
2018-11-01T23:06:36.614Z,76.72
2018-11-01T23:09:07.741Z,77.05
2018-11-01T23:11:36.480Z,77.42
2018-11-01T23:14:05.307Z,77.37
2018-11-01T23:16:34.431Z,77.93
2018-11-01T23:19:04.018Z,78.08
2018-11-01T23:21:32.710Z,78.13
2018-11-01T23:24:01.471Z,78.41
2018-11-01T23:26:31.204Z,78.73
2018-11-01T23:29:00.071Z,79.07
2018-11-01T23:31:28.834Z,78.85
2018-11-01T23:33:57.616Z,78.73
2018-11-01T23:36:25.448Z,78.57
2018-11-01T23:38:59.302Z,78.58
2018-11-01T23:41:33.078Z,78.63
2018-11-01T23:44:06.973Z,78.62
2018-11-01T23:46:40.909Z,78.63
2018-11-01T23:49:17.546Z,78.76
2018-11-01T23:52:49.142Z,79.03
2018-11-01T23:55:17.995Z,79.18
2018-11-01T23:57:46.743Z,79.54
